Station Historical Data
Daily Summary for October 18, 2017 Units:  Metric    English   Both
« Previous Day
Next Day »
Daily Weekly Monthly Yearly Custom
  High: Low: Average:
Temperature: 19.6 °C 10.1 °C 14.3 °C
Dew Point: 12.6 °C 5.8 °C 8.7 °C
Humidity: 82% 51% 70%
Wind Speed: 20.9km/h 0km/h 4.8km/h
Wind Gust: 32.2km/h - -
Wind- - SW
Pressure: 1025.3 hPa 1019.9 hPa -
Precipitation: 0 mm    
Historical Graphs
 
 
Tabular Data for October 18, 2017
Time Temperature Dew Point Pressure Wind Wind Speed Wind Gust Humidity Rainfall Rate (Hourly)
00:04 12.8 °C 5.9 °C 1022.2 hPa SSW 6.4 km/h 14.5 km/h 63% 0 mm
00:09 12.7 °C 6.1 °C 1022.6 hPa SSW 4.8 km/h 14.5 km/h 64% 0 mm
00:14 12.7 °C 6.1 °C 1022.6 hPa SSW 4.8 km/h 12.9 km/h 64% 0 mm
00:19 12.7 °C 6.1 °C 1022.6 hPa WSW 8 km/h 11.3 km/h 64% 0 mm
00:24 12.7 °C 6.1 °C 1022.6 hPa SW 6.4 km/h 11.3 km/h 64% 0 mm
00:34 12.8 °C 6.2 °C 1022.6 hPa SW 4.8 km/h 16.1 km/h 64% 0 mm
00:39 12.8 °C 6.1 °C 1022.6 hPa SSW 6.4 km/h 16.1 km/h 64% 0 mm
00:44 12.7 °C 6.3 °C 1022.6 hPa SW 3.2 km/h 14.5 km/h 65% 0 mm
00:49 12.7 °C 6.3 °C 1022.6 hPa SW 9.7 km/h 11.3 km/h 65% 0 mm
00:54 12.8 °C 6.3 °C 1022.6 hPa SW 4.8 km/h 12.9 km/h 65% 0 mm
00:59 12.9 °C 6.4 °C 1022.6 hPa SW 6.4 km/h 16.1 km/h 65% 0 mm
01:04 12.9 °C 6.5 °C 1022.6 hPa SSW 6.4 km/h 12.9 km/h 65% 0 mm
01:09 13 °C 6.8 °C 1022.2 hPa SW 4.8 km/h 12.9 km/h 66% 0 mm
01:14 13.1 °C 6.9 °C 1022.6 hPa SW 6.4 km/h 14.5 km/h 66% 0 mm
01:19 13.2 °C 7 °C 1022.6 hPa SW 6.4 km/h 14.5 km/h 66% 0 mm
01:24 13.3 °C 7.1 °C 1022.6 hPa SW 6.4 km/h 14.5 km/h 66% 0 mm
01:29 13.3 °C 7.1 °C 1022.6 hPa SW 4.8 km/h 14.5 km/h 66% 0 mm
01:34 13.4 °C 7 °C 1022.6 hPa SW 6.4 km/h 14.5 km/h 65% 0 mm
01:39 13.4 °C 6.9 °C 1022.6 hPa SSW 3.2 km/h 14.5 km/h 65% 0 mm
01:44 13.3 °C 6.9 °C 1022.6 hPa SSW 3.2 km/h 9.7 km/h 65% 0 mm
01:49 13.2 °C 6.7 °C 1022.6 hPa SSW 3.2 km/h 11.3 km/h 65% 0 mm
01:54 12.9 °C 6.4 °C 1022.6 hPa WSW 1.6 km/h 12.9 km/h 65% 0 mm
01:59 12.7 °C 6.3 °C 1022.6 hPa South 12.9 km/h 12.9 km/h 65% 0 mm
02:04 12.6 °C 6.2 °C 1022.6 hPa SSW 3.2 km/h 12.9 km/h 65% 0 mm
02:09 12.5 °C 6.1 °C 1022.6 hPa SW 4.8 km/h 12.9 km/h 65% 0 mm
02:14 12.3 °C 5.9 °C 1022.6 hPa SW 4.8 km/h 11.3 km/h 65% 0 mm
02:19 12.2 °C 6.1 °C 1022.9 hPa SW 4.8 km/h 12.9 km/h 66% 0 mm
02:24 12.1 °C 5.9 °C 1022.9 hPa SW 4.8 km/h 12.9 km/h 66% 0 mm
02:29 12 °C 5.8 °C 1022.9 hPa SW 4.8 km/h 11.3 km/h 66% 0 mm
02:34 11.9 °C 5.9 °C 1022.9 hPa SW 4.8 km/h 11.3 km/h 67% 0 mm
02:39 11.9 °C 5.9 °C 1022.9 hPa SW 3.2 km/h 6.4 km/h 67% 0 mm
02:44 11.9 °C 6.2 °C 1022.9 hPa SW 6.4 km/h 8 km/h 68% 0 mm
02:49 11.8 °C 6.1 °C 1022.9 hPa SW 3.2 km/h 9.7 km/h 68% 0 mm
02:54 11.8 °C 6.1 °C 1022.9 hPa SW 1.6 km/h 6.4 km/h 68% 0 mm
02:59 11.7 °C 6.2 °C 1022.9 hPa SW 3.2 km/h 8 km/h 69% 0 mm
03:04 11.8 °C 6.3 °C 1022.9 hPa SW 4.8 km/h 8 km/h 69% 0 mm
03:09 11.9 °C 6.4 °C 1022.9 hPa SW 3.2 km/h 9.7 km/h 69% 0 mm
03:14 11.9 °C 6.7 °C 1022.9 hPa SW 3.2 km/h 9.7 km/h 70% 0 mm
03:19 11.9 °C 6.6 °C 1022.9 hPa SW 3.2 km/h 9.7 km/h 70% 0 mm
03:24 12 °C 6.9 °C 1022.9 hPa SW 3.2 km/h 9.7 km/h 71% 0 mm
03:29 11.9 °C 6.8 °C 1022.9 hPa Calm   9.7 km/h 71% 0 mm
03:34 12 °C 6.9 °C 1022.9 hPa Calm   8 km/h 71% 0 mm
03:39 11.9 °C 6.8 °C 1022.9 hPa Calm   6.4 km/h 71% 0 mm
03:44 11.9 °C 7 °C 1022.9 hPa Calm   4.8 km/h 72% 0 mm
03:49 11.8 °C 7.2 °C 1022.9 hPa SSW 1.6 km/h 6.4 km/h 73% 0 mm
03:54 11.8 °C 7.3 °C 1023.2 hPa SSW 1.6 km/h 6.4 km/h 74% 0 mm
03:59 11.8 °C 7.3 °C 1023.2 hPa SSW 1.6 km/h 6.4 km/h 74% 0 mm
04:04 11.8 °C 7.3 °C 1023.2 hPa Calm   8 km/h 74% 0 mm
04:09 11.7 °C 7.4 °C 1023.2 hPa SW 1.6 km/h 4.8 km/h 75% 0 mm
04:14 11.7 °C 7.4 °C 1023.2 hPa SW 3.2 km/h 6.4 km/h 75% 0 mm
04:19 11.7 °C 7.4 °C 1023.2 hPa SW 1.6 km/h 8 km/h 75% 0 mm
04:24 11.7 °C 7.4 °C 1023.2 hPa SSW 3.2 km/h 9.7 km/h 75% 0 mm
04:29 11.8 °C 7.5 °C 1023.2 hPa SSW 3.2 km/h 9.7 km/h 75% 0 mm
04:34 11.8 °C 7.5 °C 1023.2 hPa SSW 3.2 km/h 8 km/h 75% 0 mm
04:39 11.7 °C 7.4 °C 1023.2 hPa SSW 3.2 km/h 8 km/h 75% 0 mm
04:44 11.4 °C 7.2 °C 1023.6 hPa Calm   3.2 km/h 75% 0 mm
04:54 10.9 °C 6.9 °C 1023.6 hPa Calm     76% 0 mm
04:59 10.8 °C 6.9 °C 1023.6 hPa Calm     77% 0 mm
05:04 10.5 °C 6.6 °C 1023.6 hPa Calm   1.6 km/h 77% 0 mm
05:09 10.3 °C 6.7 °C 1023.6 hPa Calm   1.6 km/h 78% 0 mm
05:14 10.3 °C 6.8 °C 1023.6 hPa Calm   4.8 km/h 79% 0 mm
05:19 10.4 °C 6.9 °C 1023.6 hPa Calm   1.6 km/h 79% 0 mm
05:24 10.4 °C 6.9 °C 1023.6 hPa SSW 1.6 km/h 3.2 km/h 79% 0 mm
05:29 10.4 °C 6.8 °C 1023.9 hPa Calm   4.8 km/h 78% 0 mm
05:34 10.4 °C 6.9 °C 1023.9 hPa Calm   4.8 km/h 79% 0 mm
05:39 10.3 °C 6.8 °C 1023.6 hPa Calm     79% 0 mm
05:44 10.3 °C 6.8 °C 1023.6 hPa Calm   1.6 km/h 79% 0 mm
05:49 10.2 °C 6.7 °C 1023.6 hPa Calm   1.6 km/h 79% 0 mm
05:54 10.1 °C 6.8 °C 1023.6 hPa Calm     80% 0 mm
05:59 10.1 °C 6.8 °C 1023.9 hPa Calm     80% 0 mm
06:04 10.1 °C 6.9 °C 1023.9 hPa Calm     81% 0 mm
06:09 10.2 °C 7.1 °C 1023.9 hPa Calm   4.8 km/h 81% 0 mm
06:14 10.3 °C 7.2 °C 1023.9 hPa Calm   4.8 km/h 81% 0 mm
06:19 10.3 °C 7.2 °C 1023.9 hPa Calm     81% 0 mm
06:24 10.4 °C 7.5 °C 1023.9 hPa Calm   4.8 km/h 82% 0 mm
06:29 10.5 °C 7.4 °C 1023.9 hPa Calm     81% 0 mm
06:34 10.7 °C 7.7 °C 1023.9 hPa SW 1.6 km/h 6.4 km/h 82% 0 mm
06:39 10.9 °C 7.8 °C 1023.9 hPa SW 1.6 km/h 6.4 km/h 81% 0 mm
06:44 10.9 °C 7.8 °C 1023.9 hPa SW 1.6 km/h 4.8 km/h 81% 0 mm
06:49 10.8 °C 7.7 °C 1023.9 hPa SSW 1.6 km/h 6.4 km/h 81% 0 mm
06:54 10.8 °C 7.7 °C 1024.3 hPa SSW 1.6 km/h 6.4 km/h 81% 0 mm
06:59 10.8 °C 7.7 °C 1024.3 hPa Calm   4.8 km/h 81% 0 mm
07:04 10.7 °C 7.6 °C 1024.3 hPa Calm   8 km/h 81% 0 mm
07:09 10.8 °C 7.8 °C 1024.3 hPa SW 1.6 km/h 8 km/h 82% 0 mm
07:14 10.9 °C 8 °C 1024.3 hPa SW 1.6 km/h 6.4 km/h 82% 0 mm
07:19 11 °C 7.9 °C 1024.3 hPa Calm   4.8 km/h 81% 0 mm
07:24 10.8 °C 7.7 °C 1024.3 hPa Calm     81% 0 mm
07:29 10.5 °C 7.4 °C 1024.3 hPa Calm     81% 0 mm
07:34 10.4 °C 7.4 °C 1024.3 hPa SSW 1.6 km/h 4.8 km/h 82% 0 mm
07:39 10.5 °C 7.6 °C 1024.3 hPa SSW 1.6 km/h 9.7 km/h 82% 0 mm
07:44 10.7 °C 7.8 °C 1024.3 hPa SW 1.6 km/h 9.7 km/h 82% 0 mm
07:49 10.8 °C 7.9 °C 1024.3 hPa Calm   4.8 km/h 82% 0 mm
07:54 11 °C 7.9 °C 1024.3 hPa SSW 3.2 km/h 8 km/h 81% 0 mm
07:59 11.2 °C 7.9 °C 1024.3 hPa Calm   8 km/h 80% 0 mm
08:04 11.4 °C 8.1 °C 1024.6 hPa SW 4.8 km/h 6.4 km/h 80% 0 mm
08:09 11.5 °C 8 °C 1024.6 hPa SSW 4.8 km/h 8 km/h 79% 0 mm
08:14 11.7 °C 8.2 °C 1024.6 hPa SSW 1.6 km/h 12.9 km/h 79% 0 mm
08:19 11.7 °C 8 °C 1024.6 hPa SSW 3.2 km/h 12.9 km/h 78% 0 mm
08:24 11.8 °C 8.1 °C 1024.6 hPa SSW 4.8 km/h 12.9 km/h 78% 0 mm
08:29 11.9 °C 8.1 °C 1024.6 hPa SW 4.8 km/h 12.9 km/h 77% 0 mm
08:34 12.2 °C 8.3 °C 1024.9 hPa SW 11.3 km/h 14.5 km/h 77% 0 mm
08:39 12.4 °C 8.3 °C 1024.9 hPa West 3.2 km/h 12.9 km/h 76% 0 mm
08:44 12.6 °C 8.5 °C 1024.9 hPa SW 6.4 km/h 12.9 km/h 76% 0 mm
08:49 12.9 °C 8.6 °C 1024.9 hPa SW 4.8 km/h 11.3 km/h 75% 0 mm
08:54 13.1 °C 8.5 °C 1024.9 hPa SW 3.2 km/h 12.9 km/h 74% 0 mm
08:59 13.3 °C 8.8 °C 1024.9 hPa SSW 8 km/h 11.3 km/h 74% 0 mm
09:04 13.5 °C 8.8 °C 1025.3 hPa SSW 6.4 km/h 11.3 km/h 73% 0 mm
09:09 13.7 °C 8.8 °C 1025.3 hPa SW 6.4 km/h 14.5 km/h 72% 0 mm
09:14 13.9 °C 8.9 °C 1025.3 hPa SW 6.4 km/h 11.3 km/h 72% 0 mm
09:19 14.1 °C 8.9 °C 1025.3 hPa SW 4.8 km/h 12.9 km/h 71% 0 mm
09:24 14.2 °C 9.2 °C 1025.3 hPa SW 6.4 km/h 14.5 km/h 72% 0 mm
09:29 14.4 °C 9.2 °C 1025.3 hPa SW 6.4 km/h 14.5 km/h 71% 0 mm
09:34 14.6 °C 9.2 °C 1025.3 hPa SW 6.4 km/h 16.1 km/h 70% 0 mm
09:39 14.8 °C 9.3 °C 1025.3 hPa SW 14.5 km/h 16.1 km/h 70% 0 mm
09:44 14.8 °C 9.2 °C 1025.3 hPa SW 6.4 km/h 17.7 km/h 69% 0 mm
09:49 15 °C 9.3 °C 1025.3 hPa SW 8 km/h 17.7 km/h 69% 0 mm
09:54 15.2 °C 9.6 °C 1025.3 hPa SW 8 km/h 16.1 km/h 69% 0 mm
09:59 15.3 °C 9.4 °C 1025.3 hPa SW 6.4 km/h 20.9 km/h 68% 0 mm
10:04 15.4 °C 9.6 °C 1025.3 hPa SW 14.5 km/h 17.7 km/h 68% 0 mm
10:09 15.4 °C 9.6 °C 1025.3 hPa WSW 6.4 km/h 20.9 km/h 68% 0 mm
10:14 15.5 °C 9.6 °C 1025.3 hPa SW 6.4 km/h 19.3 km/h 68% 0 mm
10:19 15.7 °C 9.8 °C 1025.3 hPa SW 9.7 km/h 20.9 km/h 68% 0 mm
10:24 15.8 °C 9.9 °C 1025.3 hPa SW 9.7 km/h 20.9 km/h 68% 0 mm
10:29 15.8 °C 9.9 °C 1025.3 hPa SW 9.7 km/h 22.5 km/h 68% 0 mm
10:34 16.3 °C 10.3 °C 1025.3 hPa SW 8 km/h 22.5 km/h 68% 0 mm
10:39 16.6 °C 10.4 °C 1025.3 hPa WSW 14.5 km/h 14.5 km/h 67% 0 mm
10:44 16.6 °C 10.7 °C 1025.3 hPa SW 3.2 km/h 17.7 km/h 68% 0 mm
10:49 16.6 °C 10.7 °C 1025.3 hPa SW 16.1 km/h 19.3 km/h 68% 0 mm
10:54 16.4 °C 10.5 °C 1025.3 hPa SW 9.7 km/h 20.9 km/h 68% 0 mm
10:59 16.6 °C 10.6 °C 1025.3 hPa SW 11.3 km/h 24.1 km/h 68% 0 mm
11:04 16.8 °C 10.9 °C 1025.3 hPa WSW 17.7 km/h 17.7 km/h 68% 0 mm
11:09 16.9 °C 10.9 °C 1025.3 hPa WSW 12.9 km/h 20.9 km/h 68% 0 mm
11:14 17.1 °C 11.3 °C 1025.3 hPa West 6.4 km/h 22.5 km/h 69% 0 mm
11:19 17.3 °C 11.2 °C 1025.3 hPa SW 4.8 km/h 14.5 km/h 67% 0 mm
11:24 17.2 °C 11.3 °C 1025.3 hPa WSW 11.3 km/h 24.1 km/h 68% 0 mm
11:29 17.3 °C 11.2 °C 1024.9 hPa WSW 11.3 km/h 24.1 km/h 67% 0 mm
11:34 17.5 °C 11.7 °C 1024.9 hPa WSW 9.7 km/h 17.7 km/h 69% 0 mm
11:39 17.6 °C 11.6 °C 1024.9 hPa South 6.4 km/h 24.1 km/h 68% 0 mm
11:44 17.5 °C 11.5 °C 1024.9 hPa WSW 12.9 km/h 22.5 km/h 68% 0 mm
11:49 17.7 °C 11.7 °C 1024.9 hPa SW 6.4 km/h 22.5 km/h 68% 0 mm
11:54 17.8 °C 11.8 °C 1024.9 hPa WSW 12.9 km/h 24.1 km/h 68% 0 mm
11:59 17.7 °C 11.5 °C 1024.9 hPa SW 12.9 km/h 24.1 km/h 67% 0 mm
12:04 17.8 °C 11.8 °C 1024.9 hPa WSW 8 km/h 24.1 km/h 68% 0 mm
12:09 17.8 °C 11.8 °C 1024.9 hPa SW 9.7 km/h 22.5 km/h 68% 0 mm
12:14 18.2 °C 11.9 °C 1024.6 hPa SSW 11.3 km/h 22.5 km/h 67% 0 mm
12:19 18.3 °C 12.1 °C 1024.6 hPa WSW 6.4 km/h 19.3 km/h 67% 0 mm
12:24 18.4 °C 12.2 °C 1024.6 hPa WSW 3.2 km/h 19.3 km/h 67% 0 mm
12:29 18.4 °C 11.9 °C 1024.6 hPa WSW 9.7 km/h 20.9 km/h 66% 0 mm
12:34 18.3 °C 12.1 °C 1024.6 hPa WSW 11.3 km/h 29 km/h 67% 0 mm
12:39 18.5 °C 12 °C 1024.3 hPa WSW 11.3 km/h 32.2 km/h 66% 0 mm
12:44 18.4 °C 12 °C 1024.3 hPa WSW 11.3 km/h 32.2 km/h 66% 0 mm
12:49 18.3 °C 12.1 °C 1024.3 hPa SW 9.7 km/h 25.7 km/h 67% 0 mm
12:54 18.3 °C 12.3 °C 1024.3 hPa West 9.7 km/h 24.1 km/h 68% 0 mm
12:59 18.3 °C 12.1 °C 1024.3 hPa WSW 12.9 km/h 27.4 km/h 67% 0 mm
13:04 18.4 °C 12.4 °C 1023.9 hPa WNW 6.4 km/h 29 km/h 68% 0 mm
13:09 18.6 °C 12.6 °C 1023.9 hPa SW 8 km/h 27.4 km/h 68% 0 mm
13:14 18.7 °C 12.2 °C 1023.9 hPa SW 20.9 km/h 32.2 km/h 66% 0 mm
13:19 18.7 °C 12.2 °C 1023.9 hPa WSW 17.7 km/h 22.5 km/h 66% 0 mm
13:24 18.7 °C 12.2 °C 1023.6 hPa West 4.8 km/h 24.1 km/h 66% 0 mm
13:29 18.9 °C 12.2 °C 1023.6 hPa WSW 11.3 km/h 24.1 km/h 65% 0 mm
13:34 18.8 °C 12.1 °C 1023.2 hPa WSW 11.3 km/h 22.5 km/h 65% 0 mm
13:39 18.7 °C 12 °C 1023.2 hPa WSW 11.3 km/h 24.1 km/h 65% 0 mm
13:44 18.8 °C 11.2 °C 1023.2 hPa WSW 12.9 km/h 24.1 km/h 61% 0 mm
13:49 18.9 °C 11.2 °C 1023.2 hPa WSW 12.9 km/h 24.1 km/h 61% 0 mm
13:54 19.2 °C 11.4 °C 1023.2 hPa WNW 14.5 km/h 19.3 km/h 61% 0 mm
13:59 19.3 °C 10.8 °C 1022.9 hPa WSW 9.7 km/h 20.9 km/h 58% 0 mm
14:04 19.3 °C 10 °C 1022.9 hPa SW 11.3 km/h 27.4 km/h 55% 0 mm
14:09 19.3 °C 9.4 °C 1022.9 hPa SW 20.9 km/h 25.7 km/h 53% 0 mm
14:14 19.3 °C 9.5 °C 1022.9 hPa WSW 12.9 km/h 24.1 km/h 53% 0 mm
14:19 19.3 °C 9.5 °C 1022.9 hPa WSW 17.7 km/h 27.4 km/h 53% 0 mm
14:24 19.1 °C 9 °C 1022.6 hPa SW 8 km/h 24.1 km/h 52% 0 mm
14:29 19.1 °C 9.6 °C 1022.6 hPa West 11.3 km/h 19.3 km/h 54% 0 mm
14:34 19.6 °C 10.6 °C 1022.6 hPa WSW 9.7 km/h 19.3 km/h 56% 0 mm
14:39 19.4 °C 9.3 °C 1022.6 hPa WSW 9.7 km/h 20.9 km/h 52% 0 mm
14:44 19.4 °C 9.6 °C 1022.6 hPa WSW 11.3 km/h 20.9 km/h 53% 0 mm
14:49 19.4 °C 9.6 °C 1022.6 hPa SSW 16.1 km/h 24.1 km/h 53% 0 mm
14:54 19.4 °C 9.6 °C 1022.6 hPa WSW 8 km/h 27.4 km/h 53% 0 mm
14:59 19.4 °C 9.3 °C 1022.6 hPa WSW 4.8 km/h 19.3 km/h 52% 0 mm
15:04 19.4 °C 9.6 °C 1022.2 hPa WSW 9.7 km/h 22.5 km/h 53% 0 mm
15:09 19.2 °C 8.8 °C 1022.2 hPa WSW 11.3 km/h 22.5 km/h 51% 0 mm
15:14 19.1 °C 8.7 °C 1022.2 hPa WSW 11.3 km/h 20.9 km/h 51% 0 mm
15:19 19.2 °C 8.8 °C 1022.2 hPa WSW 11.3 km/h 19.3 km/h 51% 0 mm
15:24 19.4 °C 9.3 °C 1022.2 hPa WSW 9.7 km/h 20.9 km/h 52% 0 mm
15:29 19.2 °C 8.8 °C 1022.2 hPa SSW 8 km/h 17.7 km/h 51% 0 mm
15:34 19.2 °C 8.8 °C 1022.2 hPa West 8 km/h 19.3 km/h 51% 0 mm
15:44 19.3 °C 9.2 °C 1022.2 hPa NW 9.7 km/h 17.7 km/h 52% 0 mm
15:49 19.4 °C 9.3 °C 1021.9 hPa West 14.5 km/h 19.3 km/h 52% 0 mm
15:54 19.2 °C 9.1 °C 1021.9 hPa WSW 12.9 km/h 17.7 km/h 52% 0 mm
15:59 19.3 °C 9.2 °C 1021.9 hPa WSW 4.8 km/h 19.3 km/h 52% 0 mm
16:04 19.3 °C 9.2 °C 1021.9 hPa West 14.5 km/h 17.7 km/h 52% 0 mm
16:09 19.2 °C 9.1 °C 1021.9 hPa WSW 11.3 km/h 16.1 km/h 52% 0 mm
16:14 19.1 °C 8.9 °C 1021.9 hPa SW 9.7 km/h 16.1 km/h 52% 0 mm
16:19 19.1 °C 8.9 °C 1021.9 hPa WSW 8 km/h 16.1 km/h 52% 0 mm
16:24 19.1 °C 8.9 °C 1021.9 hPa WSW 8 km/h 16.1 km/h 52% 0 mm
16:29 19.1 °C 9.3 °C 1021.9 hPa West 9.7 km/h 17.7 km/h 53% 0 mm
16:34 19.2 °C 9.6 °C 1021.9 hPa West 3.2 km/h 11.3 km/h 54% 0 mm
16:39 19.1 °C 9.6 °C 1021.9 hPa West 6.4 km/h 12.9 km/h 54% 0 mm
16:44 19.1 °C 9.8 °C 1021.9 hPa West 11.3 km/h 12.9 km/h 55% 0 mm
16:49 18.8 °C 9.8 °C 1021.6 hPa WNW 6.4 km/h 11.3 km/h 56% 0 mm
16:54 18.7 °C 9.7 °C 1021.6 hPa SW 4.8 km/h 12.9 km/h 56% 0 mm
16:59 18.7 °C 10 °C 1021.6 hPa WNW 4.8 km/h 11.3 km/h 57% 0 mm
17:04 18.4 °C 9.5 °C 1021.6 hPa WSW 4.8 km/h 19.3 km/h 56% 0 mm
17:09 18.2 °C 9.8 °C 1021.6 hPa WSW 4.8 km/h 16.1 km/h 58% 0 mm
17:14 18.1 °C 9.9 °C 1021.6 hPa WSW 4.8 km/h 14.5 km/h 59% 0 mm
17:19 18.1 °C 9.9 °C 1021.6 hPa SW 6.4 km/h 14.5 km/h 59% 0 mm
17:24 17.9 °C 10 °C 1021.6 hPa SW 4.8 km/h 12.9 km/h 60% 0 mm
17:29 17.7 °C 9.8 °C 1021.6 hPa WSW 8 km/h 12.9 km/h 60% 0 mm
17:34 17.6 °C 9.7 °C 1021.6 hPa SW 8 km/h 19.3 km/h 60% 0 mm
17:39 17.4 °C 9.6 °C 1021.6 hPa WSW 11.3 km/h 11.3 km/h 60% 0 mm
17:44 17.3 °C 10 °C 1021.6 hPa SW 3.2 km/h 12.9 km/h 62% 0 mm
17:49 17.2 °C 9.8 °C 1021.6 hPa WSW 6.4 km/h 12.9 km/h 62% 0 mm
17:54 17.1 °C 10.2 °C 1021.6 hPa SW 8 km/h 9.7 km/h 64% 0 mm
17:59 16.9 °C 10.3 °C 1021.6 hPa SW 4.8 km/h 9.7 km/h 65% 0 mm
18:04 16.7 °C 10.3 °C 1021.6 hPa SW 4.8 km/h 12.9 km/h 66% 0 mm
18:09 16.5 °C 10.3 °C 1021.6 hPa SW 6.4 km/h 12.9 km/h 67% 0 mm
18:14 16.4 °C 10.3 °C 1021.6 hPa WSW 6.4 km/h 12.9 km/h 67% 0 mm
18:19 16.4 °C 10.5 °C 1021.6 hPa SW 3.2 km/h 12.9 km/h 68% 0 mm
18:24 16.3 °C 10.6 °C 1021.6 hPa Calm   8 km/h 69% 0 mm
18:29 15.9 °C 10.5 °C 1021.6 hPa Calm   4.8 km/h 70% 0 mm
18:34 15.6 °C 10.4 °C 1021.6 hPa Calm   4.8 km/h 71% 0 mm
18:39 15.3 °C 10.5 °C 1021.6 hPa Calm   4.8 km/h 73% 0 mm
18:44 15.2 °C 10.3 °C 1021.6 hPa Calm   4.8 km/h 73% 0 mm
18:49 15 °C 10.2 °C 1021.6 hPa Calm     73% 0 mm
18:54 14.8 °C 10.2 °C 1021.6 hPa Calm     74% 0 mm
18:59 14.6 °C 10.2 °C 1021.6 hPa Calm     75% 0 mm
19:04 14.4 °C 10.1 °C 1021.6 hPa Calm     75% 0 mm
19:09 14.2 °C 10.1 °C 1021.6 hPa Calm     76% 0 mm
19:14 14.1 °C 10.1 °C 1021.6 hPa Calm     77% 0 mm
19:19 14.1 °C 10.1 °C 1021.6 hPa Calm     77% 0 mm
19:24 13.9 °C 10 °C 1021.6 hPa Calm     77% 0 mm
19:29 13.9 °C 9.9 °C 1021.6 hPa Calm     77% 0 mm
19:34 13.7 °C 9.9 °C 1021.6 hPa Calm     78% 0 mm
19:39 13.6 °C 9.8 °C 1021.6 hPa Calm     78% 0 mm
19:44 13.5 °C 9.9 °C 1021.6 hPa Calm     79% 0 mm
19:49 13.4 °C 9.9 °C 1021.6 hPa Calm     79% 0 mm
19:54 13.3 °C 9.8 °C 1021.6 hPa Calm     79% 0 mm
19:59 13.2 °C 9.8 °C 1021.6 hPa Calm     80% 0 mm
20:04 13.2 °C 9.6 °C 1021.6 hPa Calm     79% 0 mm
20:09 13.1 °C 9.6 °C 1021.2 hPa Calm     79% 0 mm
20:14 13.1 °C 9.5 °C 1021.2 hPa Calm     79% 0 mm
20:19 12.9 °C 9.2 °C 1021.2 hPa Calm     78% 0 mm
20:24 13 °C 9.3 °C 1021.2 hPa Calm     78% 0 mm
20:29 12.9 °C 8.9 °C 1021.2 hPa Calm     77% 0 mm
20:34 12.7 °C 8.9 °C 1021.2 hPa Calm   4.8 km/h 78% 0 mm
20:39 12.6 °C 8.9 °C 1021.2 hPa Calm   4.8 km/h 78% 0 mm
20:44 12.6 °C 8.8 °C 1021.2 hPa Calm     78% 0 mm
20:49 12.4 °C 8.7 °C 1020.9 hPa Calm   1.6 km/h 78% 0 mm
20:54 12.3 °C 8.6 °C 1020.9 hPa Calm   1.6 km/h 78% 0 mm
20:59 12.3 °C 8.6 °C 1020.9 hPa Calm   1.6 km/h 78% 0 mm
21:04 12.2 °C 8.4 °C 1020.9 hPa Calm   3.2 km/h 78% 0 mm
21:09 12.1 °C 8.3 °C 1020.9 hPa Calm   3.2 km/h 78% 0 mm
21:14 11.9 °C 8.4 °C 1020.9 hPa Calm     79% 0 mm
21:19 11.9 °C 8.4 °C 1020.9 hPa Calm     79% 0 mm
21:24 11.8 °C 8.3 °C 1020.9 hPa Calm     79% 0 mm
21:29 11.8 °C 8.3 °C 1020.9 hPa Calm     79% 0 mm
21:34 11.8 °C 8.3 °C 1020.9 hPa Calm     79% 0 mm
21:39 11.6 °C 8.1 °C 1020.5 hPa Calm     79% 0 mm
21:44 11.5 °C 8.2 °C 1020.5 hPa Calm     80% 0 mm
21:49 11.4 °C 8.1 °C 1020.5 hPa Calm   4.8 km/h 80% 0 mm
21:54 11.2 °C 7.8 °C 1020.5 hPa Calm     80% 0 mm
21:59 11.1 °C 7.9 °C 1020.5 hPa Calm     81% 0 mm
22:04 11 °C 7.9 °C 1020.5 hPa Calm     81% 0 mm
22:09 11 °C 7.9 °C 1020.5 hPa Calm   3.2 km/h 81% 0 mm
22:14 11.2 °C 7.9 °C 1020.5 hPa Calm   4.8 km/h 80% 0 mm
22:19 11.5 °C 7.8 °C 1020.5 hPa SSW 1.6 km/h 6.4 km/h 78% 0 mm
22:24 11.8 °C 7.7 °C 1020.5 hPa SSW 3.2 km/h 6.4 km/h 76% 0 mm
22:29 12 °C 7.5 °C 1020.5 hPa Calm   4.8 km/h 74% 0 mm
22:34 12 °C 7.5 °C 1020.5 hPa Calm   6.4 km/h 74% 0 mm
22:39 11.8 °C 7.3 °C 1020.5 hPa Calm     74% 0 mm
22:44 11.7 °C 7.2 °C 1020.2 hPa Calm     74% 0 mm
22:49 11.6 °C 7.1 °C 1020.2 hPa Calm   4.8 km/h 74% 0 mm
22:54 11.6 °C 7.1 °C 1020.2 hPa Calm   4.8 km/h 74% 0 mm
22:59 11.4 °C 6.9 °C 1020.2 hPa Calm   4.8 km/h 74% 0 mm
23:04 11.4 °C 6.7 °C 1020.2 hPa SSW 1.6 km/h 4.8 km/h 73% 0 mm
23:09 11.3 °C 6.7 °C 1020.2 hPa SSW 1.6 km/h 3.2 km/h 73% 0 mm
23:15 11.3 °C 6.7 °C 1020.2 hPa Calm   3.2 km/h 73% 0 mm
23:24 11.2 °C 6.6 °C 1019.9 hPa Calm     73% 0 mm
23:29 11.1 °C 6.4 °C 1019.9 hPa Calm     73% 0 mm
23:34 10.8 °C 6.4 °C 1019.9 hPa Calm     74% 0 mm
23:39 10.8 °C 6.5 °C 1019.9 hPa Calm     75% 0 mm
23:44 10.6 °C 6.2 °C 1019.9 hPa Calm     74% 0 mm
23:49 10.5 °C 6.3 °C 1019.9 hPa Calm     75% 0 mm
23:54 10.6 °C 6.1 °C 1019.9 hPa Calm     74% 0 mm
23:59 10.4 °C 6 °C 1019.9 hPa Calm     74% 0 mm
Buffalo, New York, USA
Compliments of Weather Underground - 2.5 mb